MiSS Karli — WDF5923 — position and weather

sailwx.info

Track history (hours):
 
Tides and Currents Weather Stations Pressure Air Temp Water Temp Dewpoint Dewpoint Depression Visibility Wind Speed Wind Dir Waves Ship Positions

MiSS Karli

Owner: Crosby Marine Transportation LLC, Golden Meadow, LA. More information available from US FCC via Universal Licensing System and Coast Guard Vessel Documentation Center.

Last reported at 2017-Oct-18 23:04 UTC. Time now 2017-Oct-19 16:31 UTC.
Position N 29°44' W 095°08'.

Length 20 m; draft 8.5 m.

Type: Towing. MMSI: 367468730.

Date/timePositionNaut miles runAvg speedWind from/ knotsBaromVisibWave heightAir tempDewpointWater temp
2017-Oct-18 23:04N 29°44' W 095°08'1 6.3
2017-Oct-18 22:58N 29°44' W 095°09'3 5.6
2017-Oct-18 22:28N 29°44' W 095°12'2 5.1
2017-Oct-18 22:00N 29°43' W 095°14'  
2017-Oct-15 17:39N 29°44' W 095°09'5 0.2
2017-Oct-14 15:51N 29°44' W 095°03'3 5.4
2017-Oct-14 15:22N 29°42' W 095°01'2 6.5
2017-Oct-14 15:00N 29°41' W 094°59'3 6.8
2017-Oct-14 14:30N 29°38' W 094°58'3 7.0
2017-Oct-14 14:00N 29°35' W 094°56'4 7.0
2017-Oct-14 13:30N 29°32' W 094°54'78 5.7
2017-Oct-13 23:47N 30°04' W 093°32'2 6.3
2017-Oct-13 23:31N 30°04' W 093°30'3 6.2
2017-Oct-13 23:00N 30°04' W 093°26'3 6.1
2017-Oct-13 22:30N 30°04' W 093°23'2 4.5
2017-Oct-13 22:00N 30°05' W 093°20'3 5.6
2017-Oct-13 21:30N 30°07' W 093°20'4 7.1
2017-Oct-13 21:00N 30°11' W 093°19'2 3.7
2017-Oct-13 20:30N 30°13' W 093°18'1 1.9
2017-Oct-13 20:00N 30°12' W 093°19'0 0.7
2017-Oct-13 19:30N 30°12' W 093°19'0 0.0
2017-Oct-13 17:33N 30°12' W 093°19'0 0.0
2017-Oct-13 17:15N 30°12' W 093°19'0 0.0
2017-Oct-13 16:57N 30°12' W 093°19'0 0.0
2017-Oct-13 15:20N 30°12' W 093°19'0 0.0
2017-Oct-13 14:53N 30°12' W 093°19'0 0.0
2017-Oct-13 14:26N 30°12' W 093°19'0 0.0
2017-Oct-13 13:59N 30°12' W 093°19'0 0.0
2017-Oct-13 12:26N 30°12' W 093°19'0 0.0
2017-Oct-13 11:56N 30°12' W 093°19'0 0.0
2017-Oct-13 10:41N 30°12' W 093°19'0 0.0
2017-Oct-13 10:29N 30°12' W 093°19'0 0.0
2017-Oct-13 09:50N 30°12' W 093°19'0 0.0
2017-Oct-13 09:26N 30°12' W 093°19'0 0.0
2017-Oct-13 08:23N 30°12' W 093°19'0 0.0
2017-Oct-13 07:59N 30°12' W 093°19'0 0.0
2017-Oct-13 07:23N 30°12' W 093°19'0 0.0
2017-Oct-13 06:59N 30°12' W 093°19'0 0.0
2017-Oct-13 06:23N 30°12' W 093°19'0 0.0
2017-Oct-13 05:53N 30°12' W 093°19'0 0.0
2017-Oct-13 05:23N 30°12' W 093°19'0 0.0
2017-Oct-13 04:59N 30°12' W 093°19'0 0.0
2017-Oct-13 04:30N 30°12' W 093°19'1 1.8
2017-Oct-13 04:00N 30°13' W 093°19'1 2.8
2017-Oct-13 03:31N 30°12' W 093°17'3 5.5
2017-Oct-13 03:01N 30°10' W 093°19'3 6.2
2017-Oct-13 02:30N 30°07' W 093°20'3 5.6
2017-Oct-13 02:01N 30°04' W 093°21'3 6.2
2017-Oct-13 01:30N 30°04' W 093°24'3 6.7
2017-Oct-13 01:01N 30°04' W 093°28'3 6.7
2017-Oct-13 00:30N 30°04' W 093°32'3 6.5
2017-Oct-13 00:00N 30°04' W 093°36'7 0.4
2017-Oct-12 07:35N 30°03' W 093°43'3 6.3
2017-Oct-12 07:09N 30°04' W 093°40'1 6.4
2017-Oct-12 06:59N 30°04' W 093°39'5 6.5
2017-Oct-12 06:16N 30°04' W 093°34'2 6.5
2017-Oct-12 06:00N 30°04' W 093°32'3 6.6
2017-Oct-12 05:30N 30°04' W 093°28'3 6.5
2017-Oct-12 05:00N 30°04' W 093°24'3 5.3
2017-Oct-12 04:30N 30°04' W 093°21'3 5.2
2017-Oct-12 04:00N 30°06' W 093°20'3 6.4
2017-Oct-12 03:30N 30°09' W 093°20'3 6.0
2017-Oct-12 03:00N 30°12' W 093°18'1 2.0
2017-Oct-12 02:30N 30°12' W 093°18'1 1.2
2017-Oct-12 02:00N 30°12' W 093°19'0 0.5
2017-Oct-12 01:30N 30°12' W 093°19'0 0.0
2017-Oct-12 01:00N 30°12' W 093°19'0 0.0
2017-Oct-12 00:30N 30°12' W 093°19'0 0.0
2017-Oct-12 00:00N 30°12' W 093°19'0 0.0
2017-Oct-11 23:29N 30°12' W 093°19'0 0.0
2017-Oct-11 22:59N 30°12' W 093°19'0 0.0
2017-Oct-11 22:29N 30°12' W 093°19'0 0.0
2017-Oct-11 21:59N 30°12' W 093°19'0 0.0
2017-Oct-11 21:29N 30°12' W 093°19'0 0.0
2017-Oct-11 20:59N 30°12' W 093°19'0 0.0
2017-Oct-11 20:29N 30°12' W 093°19'0 0.0
2017-Oct-11 19:59N 30°12' W 093°19'0 0.0
2017-Oct-11 19:29N 30°12' W 093°19'0 0.0
2017-Oct-11 18:56N 30°12' W 093°19'0 0.0
2017-Oct-11 18:14N 30°12' W 093°19'0 0.0
2017-Oct-11 17:56N 30°12' W 093°19'0 0.0
2017-Oct-11 17:29N 30°12' W 093°19'0 0.0
2017-Oct-11 16:59N 30°12' W 093°19'1 0.1
2017-Oct-11 00:00N 30°13' W 093°19'1 3.0
2017-Oct-10 23:30N 30°12' W 093°17'3 5.4
2017-Oct-10 23:00N 30°10' W 093°19'3 5.5
2017-Oct-10 22:30N 30°07' W 093°20'3 5.4
2017-Oct-10 22:00N 30°04' W 093°20'3 5.4
2017-Oct-10 21:30N 30°04' W 093°23'3 6.6
2017-Oct-10 21:00N 30°04' W 093°27'3 6.4
2017-Oct-10 20:30N 30°04' W 093°31'3 6.2
2017-Oct-10 20:00N 30°04' W 093°35'3 5.8
2017-Oct-10 19:28N 30°04' W 093°38'  
Track history (hours):
 
Tides and Currents Weather Stations Pressure Air Temp Water Temp Dewpoint Dewpoint Depression Visibility Wind Speed Wind Dir Waves Ship Positions

MiSS Karli

Owner: Crosby Marine Transportation LLC, Golden Meadow, LA. More information available from US FCC via Universal Licensing System and Coast Guard Vessel Documentation Center.

Last reported at 2017-Oct-18 23:04 UTC. Time now 2017-Oct-19 16:31 UTC.
Position N 29°44' W 095°08'.

Length 20 m; draft 8.5 m.

Type: Towing. MMSI: 367468730.

Date/timePositionNaut miles runAvg speedWind from/ knotsBaromVisibWave heightAir tempDewpointWater temp
2017-Oct-18 23:04N 29°44' W 095°08'1 6.3
2017-Oct-18 22:58N 29°44' W 095°09'3 5.6
2017-Oct-18 22:28N 29°44' W 095°12'2 5.1
2017-Oct-18 22:00N 29°43' W 095°14'  
2017-Oct-15 17:39N 29°44' W 095°09'5 0.2
2017-Oct-14 15:51N 29°44' W 095°03'3 5.4
2017-Oct-14 15:22N 29°42' W 095°01'2 6.5
2017-Oct-14 15:00N 29°41' W 094°59'3 6.8
2017-Oct-14 14:30N 29°38' W 094°58'3 7.0
2017-Oct-14 14:00N 29°35' W 094°56'4 7.0
2017-Oct-14 13:30N 29°32' W 094°54'78 5.7
2017-Oct-13 23:47N 30°04' W 093°32'2 6.3
2017-Oct-13 23:31N 30°04' W 093°30'3 6.2
2017-Oct-13 23:00N 30°04' W 093°26'3 6.1
2017-Oct-13 22:30N 30°04' W 093°23'2 4.5
2017-Oct-13 22:00N 30°05' W 093°20'3 5.6
2017-Oct-13 21:30N 30°07' W 093°20'4 7.1
2017-Oct-13 21:00N 30°11' W 093°19'2 3.7
2017-Oct-13 20:30N 30°13' W 093°18'1 1.9
2017-Oct-13 20:00N 30°12' W 093°19'0 0.7
2017-Oct-13 19:30N 30°12' W 093°19'0 0.0
2017-Oct-13 17:33N 30°12' W 093°19'0 0.0
2017-Oct-13 17:15N 30°12' W 093°19'0 0.0
2017-Oct-13 16:57N 30°12' W 093°19'0 0.0
2017-Oct-13 15:20N 30°12' W 093°19'0 0.0
2017-Oct-13 14:53N 30°12' W 093°19'0 0.0
2017-Oct-13 14:26N 30°12' W 093°19'0 0.0
2017-Oct-13 13:59N 30°12' W 093°19'0 0.0
2017-Oct-13 12:26N 30°12' W 093°19'0 0.0
2017-Oct-13 11:56N 30°12' W 093°19'0 0.0
2017-Oct-13 10:41N 30°12' W 093°19'0 0.0
2017-Oct-13 10:29N 30°12' W 093°19'0 0.0
2017-Oct-13 09:50N 30°12' W 093°19'0 0.0
2017-Oct-13 09:26N 30°12' W 093°19'0 0.0
2017-Oct-13 08:23N 30°12' W 093°19'0 0.0
2017-Oct-13 07:59N 30°12' W 093°19'0 0.0
2017-Oct-13 07:23N 30°12' W 093°19'0 0.0
2017-Oct-13 06:59N 30°12' W 093°19'0 0.0
2017-Oct-13 06:23N 30°12' W 093°19'0 0.0
2017-Oct-13 05:53N 30°12' W 093°19'0 0.0
2017-Oct-13 05:23N 30°12' W 093°19'0 0.0
2017-Oct-13 04:59N 30°12' W 093°19'0 0.0
2017-Oct-13 04:30N 30°12' W 093°19'1 1.8
2017-Oct-13 04:00N 30°13' W 093°19'1 2.8
2017-Oct-13 03:31N 30°12' W 093°17'3 5.5
2017-Oct-13 03:01N 30°10' W 093°19'3 6.2
2017-Oct-13 02:30N 30°07' W 093°20'3 5.6
2017-Oct-13 02:01N 30°04' W 093°21'3 6.2
2017-Oct-13 01:30N 30°04' W 093°24'3 6.7
2017-Oct-13 01:01N 30°04' W 093°28'3 6.7
2017-Oct-13 00:30N 30°04' W 093°32'3 6.5
2017-Oct-13 00:00N 30°04' W 093°36'7 0.4
2017-Oct-12 07:35N 30°03' W 093°43'3 6.3
2017-Oct-12 07:09N 30°04' W 093°40'1 6.4
2017-Oct-12 06:59N 30°04' W 093°39'5 6.5
2017-Oct-12 06:16N 30°04' W 093°34'2 6.5
2017-Oct-12 06:00N 30°04' W 093°32'3 6.6
2017-Oct-12 05:30N 30°04' W 093°28'3 6.5
2017-Oct-12 05:00N 30°04' W 093°24'3 5.3
2017-Oct-12 04:30N 30°04' W 093°21'3 5.2
2017-Oct-12 04:00N 30°06' W 093°20'3 6.4
2017-Oct-12 03:30N 30°09' W 093°20'3 6.0
2017-Oct-12 03:00N 30°12' W 093°18'1 2.0
2017-Oct-12 02:30N 30°12' W 093°18'1 1.2
2017-Oct-12 02:00N 30°12' W 093°19'0 0.5
2017-Oct-12 01:30N 30°12' W 093°19'0 0.0
2017-Oct-12 01:00N 30°12' W 093°19'0 0.0
2017-Oct-12 00:30N 30°12' W 093°19'0 0.0
2017-Oct-12 00:00N 30°12' W 093°19'0 0.0
2017-Oct-11 23:29N 30°12' W 093°19'0 0.0
2017-Oct-11 22:59N 30°12' W 093°19'0 0.0
2017-Oct-11 22:29N 30°12' W 093°19'0 0.0
2017-Oct-11 21:59N 30°12' W 093°19'0 0.0
2017-Oct-11 21:29N 30°12' W 093°19'0 0.0
2017-Oct-11 20:59N 30°12' W 093°19'0 0.0
2017-Oct-11 20:29N 30°12' W 093°19'0 0.0
2017-Oct-11 19:59N 30°12' W 093°19'0 0.0
2017-Oct-11 19:29N 30°12' W 093°19'0 0.0
2017-Oct-11 18:56N 30°12' W 093°19'0 0.0
2017-Oct-11 18:14N 30°12' W 093°19'0 0.0
2017-Oct-11 17:56N 30°12' W 093°19'0 0.0
2017-Oct-11 17:29N 30°12' W 093°19'0 0.0
2017-Oct-11 16:59N 30°12' W 093°19'1 0.1
2017-Oct-11 00:00N 30°13' W 093°19'1 3.0
2017-Oct-10 23:30N 30°12' W 093°17'3 5.4
2017-Oct-10 23:00N 30°10' W 093°19'3 5.5
2017-Oct-10 22:30N 30°07' W 093°20'3 5.4
2017-Oct-10 22:00N 30°04' W 093°20'3 5.4
2017-Oct-10 21:30N 30°04' W 093°23'3 6.6
2017-Oct-10 21:00N 30°04' W 093°27'3 6.4
2017-Oct-10 20:30N 30°04' W 093°31'3 6.2
2017-Oct-10 20:00N 30°04' W 093°35'3 5.8
2017-Oct-10 19:28N 30°04' W 093°38'  

Dump ship's entire track history